sensor_id;sensor_type;location;lat;lon;timestamp;pressure;altitude;pressure_sealevel;temperature;humidity
63916;BME280;50094;51.356;-0.196;2023-02-18T00:00:30;101525.52;;;24.58;30.52
63916;BME280;50094;51.356;-0.196;2023-02-18T00:02:57;101517.72;;;24.63;30.48
63916;BME280;50094;51.356;-0.196;2023-02-18T00:05:24;101523.20;;;24.34;30.49
63916;BME280;50094;51.356;-0.196;2023-02-18T00:07:51;101527.84;;;24.62;30.47
63916;BME280;50094;51.356;-0.196;2023-02-18T00:10:18;101523.47;;;24.69;30.47
63916;BME280;50094;51.356;-0.196;2023-02-18T00:12:45;101519.31;;;24.67;30.47
63916;BME280;50094;51.356;-0.196;2023-02-18T00:15:13;101528.20;;;24.63;30.49
63916;BME280;50094;51.356;-0.196;2023-02-18T00:17:40;101525.42;;;24.60;30.47
63916;BME280;50094;51.356;-0.196;2023-02-18T00:20:08;101522.02;;;24.81;30.49
63916;BME280;50094;51.356;-0.196;2023-02-18T00:22:35;101529.25;;;24.56;30.52
63916;BME280;50094;51.356;-0.196;2023-02-18T00:25:02;101528.57;;;24.55;30.53
63916;BME280;50094;51.356;-0.196;2023-02-18T00:27:30;101529.67;;;24.54;30.53
63916;BME280;50094;51.356;-0.196;2023-02-18T00:29:57;101526.05;;;24.53;30.55
63916;BME280;50094;51.356;-0.196;2023-02-18T00:32:24;101524.06;;;24.51;30.55
63916;BME280;50094;51.356;-0.196;2023-02-18T00:34:52;101521.59;;;24.51;30.56
63916;BME280;50094;51.356;-0.196;2023-02-18T00:37:19;101517.35;;;24.50;30.56
63916;BME280;50094;51.356;-0.196;2023-02-18T00:39:46;101522.43;;;24.50;30.58
63916;BME280;50094;51.356;-0.196;2023-02-18T00:42:13;101527.91;;;24.56;30.57
63916;BME280;50094;51.356;-0.196;2023-02-18T00:44:39;101524.47;;;24.32;30.53
63916;BME280;50094;51.356;-0.196;2023-02-18T00:47:07;101517.77;;;24.60;30.53
63916;BME280;50094;51.356;-0.196;2023-02-18T00:49:35;101513.79;;;24.53;30.55
63916;BME280;50094;51.356;-0.196;2023-02-18T00:52:03;101516.66;;;24.46;30.56
63916;BME280;50094;51.356;-0.196;2023-02-18T00:54:30;101513.86;;;24.56;30.55
63916;BME280;50094;51.356;-0.196;2023-02-18T00:56:57;101509.53;;;24.60;30.53
63916;BME280;50094;51.356;-0.196;2023-02-18T00:59:25;101505.58;;;24.58;30.53
63916;BME280;50094;51.356;-0.196;2023-02-18T01:01:51;101507.56;;;24.58;30.52
63916;BME280;50094;51.356;-0.196;2023-02-18T01:04:18;101507.30;;;24.60;30.50
63916;BME280;50094;51.356;-0.196;2023-02-18T01:06:45;101502.23;;;24.32;30.51
63916;BME280;50094;51.356;-0.196;2023-02-18T01:09:12;101505.06;;;24.57;30.50
63916;BME280;50094;51.356;-0.196;2023-02-18T01:11:39;101501.42;;;24.62;30.49
63916;BME280;50094;51.356;-0.196;2023-02-18T01:14:06;101495.51;;;24.61;30.48
63916;BME280;50094;51.356;-0.196;2023-02-18T01:16:32;101494.76;;;24.56;30.50
63916;BME280;50094;51.356;-0.196;2023-02-18T01:18:59;101493.24;;;24.55;30.48
63916;BME280;50094;51.356;-0.196;2023-02-18T01:21:26;101485.60;;;24.64;30.46
63916;BME280;50094;51.356;-0.196;2023-02-18T01:23:54;101478.97;;;24.61;30.44
63916;BME280;50094;51.356;-0.196;2023-02-18T01:26:21;101482.15;;;24.56;30.46
63916;BME280;50094;51.356;-0.196;2023-02-18T01:28:48;101474.54;;;24.60;30.44
63916;BME280;50094;51.356;-0.196;2023-02-18T01:31:15;101483.26;;;24.57;30.44
63916;BME280;50094;51.356;-0.196;2023-02-18T01:33:42;101473.20;;;24.56;30.45
63916;BME280;50094;51.356;-0.196;2023-02-18T01:36:10;101477.22;;;24.53;30.46
63916;BME280;50094;51.356;-0.196;2023-02-18T01:38:38;101476.22;;;24.50;30.49
63916;BME280;50094;51.356;-0.196;2023-02-18T01:41:05;101479.47;;;24.51;30.48
63916;BME280;50094;51.356;-0.196;2023-02-18T01:43:33;101476.99;;;24.50;30.50
63916;BME280;50094;51.356;-0.196;2023-02-18T01:46:05;101468.31;;;24.51;30.50
63916;BME280;50094;51.356;-0.196;2023-02-18T01:48:36;101468.54;;;24.53;30.49
63916;BME280;50094;51.356;-0.196;2023-02-18T01:51:09;101467.66;;;24.28;30.49
63916;BME280;50094;51.356;-0.196;2023-02-18T01:53:43;101460.67;;;24.24;30.48
63916;BME280;50094;51.356;-0.196;2023-02-18T01:56:15;101465.76;;;24.49;30.49
63916;BME280;50094;51.356;-0.196;2023-02-18T01:58:44;101469.10;;;24.49;30.49
63916;BME280;50094;51.356;-0.196;2023-02-18T02:01:12;101469.25;;;24.50;30.48
63916;BME280;50094;51.356;-0.196;2023-02-18T02:03:39;101474.25;;;24.52;30.48
63916;BME280;50094;51.356;-0.196;2023-02-18T02:06:18;101480.59;;;24.50;30.47
63916;BME280;50094;51.356;-0.196;2023-02-18T02:08:47;101478.28;;;24.76;30.45
63916;BME280;50094;51.356;-0.196;2023-02-18T02:11:29;101482.69;;;24.55;30.42
63916;BME280;50094;51.356;-0.196;2023-02-18T02:14:12;101485.79;;;24.27;30.40
63916;BME280;50094;51.356;-0.196;2023-02-18T02:16:49;101484.39;;;24.26;30.40
63916;BME280;50094;51.356;-0.196;2023-02-18T02:19:44;101478.95;;;24.57;30.38
63916;BME280;50094;51.356;-0.196;2023-02-18T02:22:46;101471.16;;;24.73;30.37
63916;BME280;50094;51.356;-0.196;2023-02-18T02:25:33;101485.10;;;24.34;30.40
63916;BME280;50094;51.356;-0.196;2023-02-18T02:28:26;101480.16;;;24.33;30.41
63916;BME280;50094;51.356;-0.196;2023-02-18T02:31:17;101479.94;;;24.39;30.37
63916;BME280;50094;51.356;-0.196;2023-02-18T02:34:32;101481.61;;;24.29;30.34
63916;BME280;50094;51.356;-0.196;2023-02-18T02:37:09;101483.32;;;24.11;30.39
63916;BME280;50094;51.356;-0.196;2023-02-18T02:39:44;101471.80;;;24.09;30.39
63916;BME280;50094;51.356;-0.196;2023-02-18T02:42:24;101467.18;;;24.06;30.43
63916;BME280;50094;51.356;-0.196;2023-02-18T02:44:55;101462.50;;;24.33;30.42
63916;BME280;50094;51.356;-0.196;2023-02-18T02:47:29;101458.88;;;24.17;30.39
63916;BME280;50094;51.356;-0.196;2023-02-18T02:50:02;101459.52;;;24.22;30.36
63916;BME280;50094;51.356;-0.196;2023-02-18T02:52:32;101472.15;;;24.29;30.27
63916;BME280;50094;51.356;-0.196;2023-02-18T02:55:04;101465.04;;;24.26;30.23
63916;BME280;50094;51.356;-0.196;2023-02-18T02:57:49;101461.36;;;24.45;30.17
63916;BME280;50094;51.356;-0.196;2023-02-18T03:00:20;101452.20;;;24.22;30.15
63916;BME280;50094;51.356;-0.196;2023-02-18T03:04:05;101447.29;;;24.23;30.12
63916;BME280;50094;51.356;-0.196;2023-02-18T03:06:54;101431.57;;;24.35;29.94
63916;BME280;50094;51.356;-0.196;2023-02-18T03:09:35;101425.08;;;24.18;29.96
63916;BME280;50094;51.356;-0.196;2023-02-18T03:12:09;101417.40;;;24.59;29.94
63916;BME280;50094;51.356;-0.196;2023-02-18T03:14:45;101405.59;;;24.36;29.94
63916;BME280;50094;51.356;-0.196;2023-02-18T03:17:22;101385.00;;;24.10;29.93
63916;BME280;50094;51.356;-0.196;2023-02-18T03:19:56;101387.35;;;24.15;29.89
63916;BME280;50094;51.356;-0.196;2023-02-18T03:22:30;101384.69;;;24.47;29.81
63916;BME280;50094;51.356;-0.196;2023-02-18T03:24:59;101392.87;;;24.16;29.79
63916;BME280;50094;51.356;-0.196;2023-02-18T03:27:29;101384.50;;;24.18;29.69
63916;BME280;50094;51.356;-0.196;2023-02-18T03:30:02;101380.51;;;24.33;29.66
63916;BME280;50094;51.356;-0.196;2023-02-18T03:32:31;101369.42;;;24.36;29.58
63916;BME280;50094;51.356;-0.196;2023-02-18T03:35:02;101368.23;;;24.03;29.58
63916;BME280;50094;51.356;-0.196;2023-02-18T03:37:32;101357.97;;;24.01;29.57
63916;BME280;50094;51.356;-0.196;2023-02-18T03:40:05;101356.43;;;23.98;29.57
63916;BME280;50094;51.356;-0.196;2023-02-18T03:42:33;101360.88;;;24.22;29.51
63916;BME280;50094;51.356;-0.196;2023-02-18T03:45:00;101364.64;;;24.37;29.53
63916;BME280;50094;51.356;-0.196;2023-02-18T03:47:28;101361.93;;;24.19;29.51
63916;BME280;50094;51.356;-0.196;2023-02-18T03:49:55;101355.25;;;24.00;29.45
63916;BME280;50094;51.356;-0.196;2023-02-18T03:52:23;101353.29;;;24.18;29.46
63916;BME280;50094;51.356;-0.196;2023-02-18T03:54:51;101351.69;;;23.96;29.43
63916;BME280;50094;51.356;-0.196;2023-02-18T03:57:18;101353.03;;;24.16;29.42
63916;BME280;50094;51.356;-0.196;2023-02-18T03:59:45;101349.88;;;24.15;29.40
63916;BME280;50094;51.356;-0.196;2023-02-18T04:02:11;101355.57;;;24.18;29.36
63916;BME280;50094;51.356;-0.196;2023-02-18T04:04:38;101346.87;;;24.04;29.28
63916;BME280;50094;51.356;-0.196;2023-02-18T04:07:05;101351.89;;;24.06;29.20
63916;BME280;50094;51.356;-0.196;2023-02-18T04:09:32;101363.78;;;23.97;29.24
63916;BME280;50094;51.356;-0.196;2023-02-18T04:11:59;101349.56;;;24.04;29.13
63916;BME280;50094;51.356;-0.196;2023-02-18T04:14:26;101348.98;;;24.39;29.08
63916;BME280;50094;51.356;-0.196;2023-02-18T04:16:53;101349.07;;;24.32;29.09
63916;BME280;50094;51.356;-0.196;2023-02-18T04:19:20;101341.79;;;24.29;29.09
63916;BME280;50094;51.356;-0.196;2023-02-18T04:21:47;101345.18;;;24.01;29.15
63916;BME280;50094;51.356;-0.196;2023-02-18T04:24:14;101342.52;;;23.87;29.13
63916;BME280;50094;51.356;-0.196;2023-02-18T04:26:41;101340.16;;;24.11;29.12
63916;BME280;50094;51.356;-0.196;2023-02-18T04:29:08;101338.32;;;24.36;29.10
63916;BME280;50094;51.356;-0.196;2023-02-18T04:31:35;101336.55;;;23.94;29.05
63916;BME280;50094;51.356;-0.196;2023-02-18T04:34:03;101338.90;;;23.97;28.97
63916;BME280;50094;51.356;-0.196;2023-02-18T04:36:30;101330.78;;;23.89;28.99
63916;BME280;50094;51.356;-0.196;2023-02-18T04:38:57;101331.39;;;24.16;28.96
63916;BME280;50094;51.356;-0.196;2023-02-18T04:41:24;101332.44;;;24.42;28.93
63916;BME280;50094;51.356;-0.196;2023-02-18T04:43:50;101331.72;;;24.22;28.90
63916;BME280;50094;51.356;-0.196;2023-02-18T04:46:17;101330.60;;;23.97;28.87
63916;BME280;50094;51.356;-0.196;2023-02-18T04:48:44;101331.43;;;24.44;28.82
63916;BME280;50094;51.356;-0.196;2023-02-18T04:51:11;101334.78;;;23.99;28.80
63916;BME280;50094;51.356;-0.196;2023-02-18T04:53:39;101333.74;;;24.21;28.79
63916;BME280;50094;51.356;-0.196;2023-02-18T04:56:06;101328.22;;;23.93;28.79
63916;BME280;50094;51.356;-0.196;2023-02-18T04:58:33;101326.04;;;24.19;28.75
63916;BME280;50094;51.356;-0.196;2023-02-18T05:01:03;101326.14;;;23.93;28.73
63916;BME280;50094;51.356;-0.196;2023-02-18T05:03:31;101328.88;;;24.34;28.75
63916;BME280;50094;51.356;-0.196;2023-02-18T05:05:58;101324.74;;;24.12;28.75
63916;BME280;50094;51.356;-0.196;2023-02-18T05:08:25;101317.27;;;24.12;28.71
63916;BME280;50094;51.356;-0.196;2023-02-18T05:10:52;101326.10;;;24.12;28.65
63916;BME280;50094;51.356;-0.196;2023-02-18T05:13:19;101320.19;;;24.25;28.68
63916;BME280;50094;51.356;-0.196;2023-02-18T05:15:46;101320.57;;;23.97;28.73
63916;BME280;50094;51.356;-0.196;2023-02-18T05:18:14;101319.50;;;24.03;28.71
63916;BME280;50094;51.356;-0.196;2023-02-18T05:20:42;101325.35;;;24.00;28.73
63916;BME280;50094;51.356;-0.196;2023-02-18T05:23:10;101325.86;;;24.04;28.70
63916;BME280;50094;51.356;-0.196;2023-02-18T05:25:36;101324.29;;;24.07;28.67
63916;BME280;50094;51.356;-0.196;2023-02-18T05:28:03;101333.16;;;23.79;28.67
63916;BME280;50094;51.356;-0.196;2023-02-18T05:30:31;101333.81;;;23.76;28.70
63916;BME280;50094;51.356;-0.196;2023-02-18T05:32:58;101339.04;;;24.25;28.69
63916;BME280;50094;51.356;-0.196;2023-02-18T05:35:25;101344.15;;;24.16;28.74
63916;BME280;50094;51.356;-0.196;2023-02-18T05:37:52;101341.26;;;24.19;28.73
63916;BME280;50094;51.356;-0.196;2023-02-18T05:40:19;101336.04;;;23.99;28.74
63916;BME280;50094;51.356;-0.196;2023-02-18T05:42:46;101335.18;;;23.96;28.76
63916;BME280;50094;51.356;-0.196;2023-02-18T05:45:13;101333.17;;;24.02;28.74
63916;BME280;50094;51.356;-0.196;2023-02-18T05:47:40;101337.93;;;23.81;28.74
63916;BME280;50094;51.356;-0.196;2023-02-18T05:50:07;101338.64;;;23.76;28.76
63916;BME280;50094;51.356;-0.196;2023-02-18T05:52:34;101340.24;;;23.88;28.72
63916;BME280;50094;51.356;-0.196;2023-02-18T05:55:02;101338.96;;;23.89;28.71
63916;BME280;50094;51.356;-0.196;2023-02-18T05:57:30;101344.76;;;24.31;28.70
63916;BME280;50094;51.356;-0.196;2023-02-18T05:59:57;101344.09;;;24.05;28.72
63916;BME280;50094;51.356;-0.196;2023-02-18T06:02:25;101342.92;;;24.28;28.73
63916;BME280;50094;51.356;-0.196;2023-02-18T06:04:52;101346.02;;;23.86;28.73
63916;BME280;50094;51.356;-0.196;2023-02-18T06:07:19;101346.29;;;24.37;28.69
63916;BME280;50094;51.356;-0.196;2023-02-18T06:09:47;101337.35;;;23.86;28.71
63916;BME280;50094;51.356;-0.196;2023-02-18T06:12:14;101331.21;;;23.95;28.64
63916;BME280;50094;51.356;-0.196;2023-02-18T06:14:41;101331.00;;;24.05;28.67
63916;BME280;50094;51.356;-0.196;2023-02-18T06:17:10;101332.72;;;23.79;28.70
63916;BME280;50094;51.356;-0.196;2023-02-18T06:19:38;101331.27;;;24.01;28.73
63916;BME280;50094;51.356;-0.196;2023-02-18T06:22:06;101333.31;;;23.76;28.75
63916;BME280;50094;51.356;-0.196;2023-02-18T06:24:33;101330.14;;;24.01;28.78
63916;BME280;50094;51.356;-0.196;2023-02-18T06:27:01;101324.24;;;23.91;28.75
63916;BME280;50094;51.356;-0.196;2023-02-18T06:29:29;101318.69;;;23.94;28.73
63916;BME280;50094;51.356;-0.196;2023-02-18T06:31:56;101330.22;;;24.21;28.68
63916;BME280;50094;51.356;-0.196;2023-02-18T06:34:24;101328.08;;;23.91;28.72
63916;BME280;50094;51.356;-0.196;2023-02-18T06:36:52;101328.37;;;23.93;28.70
63916;BME280;50094;51.356;-0.196;2023-02-18T06:39:19;101324.10;;;23.94;28.69
63916;BME280;50094;51.356;-0.196;2023-02-18T06:41:46;101331.88;;;23.89;28.71
63916;BME280;50094;51.356;-0.196;2023-02-18T06:44:14;101332.19;;;24.37;28.71
63916;BME280;50094;51.356;-0.196;2023-02-18T06:46:43;101328.65;;;23.93;28.72
63916;BME280;50094;51.356;-0.196;2023-02-18T06:49:10;101328.60;;;23.84;28.75
63916;BME280;50094;51.356;-0.196;2023-02-18T06:51:38;101329.59;;;24.16;28.73
63916;BME280;50094;51.356;-0.196;2023-02-18T06:54:05;101329.34;;;23.95;28.74
63916;BME280;50094;51.356;-0.196;2023-02-18T06:56:32;101331.92;;;24.17;28.72
63916;BME280;50094;51.356;-0.196;2023-02-18T06:58:59;101334.35;;;23.95;28.72
63916;BME280;50094;51.356;-0.196;2023-02-18T07:01:26;101333.15;;;24.16;28.72
63916;BME280;50094;51.356;-0.196;2023-02-18T07:03:53;101325.57;;;24.14;28.73
63916;BME280;50094;51.356;-0.196;2023-02-18T07:06:21;101333.42;;;24.14;28.73
63916;BME280;50094;51.356;-0.196;2023-02-18T07:08:47;101331.69;;;24.16;28.73
63916;BME280;50094;51.356;-0.196;2023-02-18T07:11:14;101326.86;;;24.02;28.70
63916;BME280;50094;51.356;-0.196;2023-02-18T07:13:42;101322.96;;;24.02;28.69
63916;BME280;50094;51.356;-0.196;2023-02-18T07:16:09;101329.51;;;24.03;28.64
63916;BME280;50094;51.356;-0.196;2023-02-18T07:18:36;101316.63;;;24.14;28.69
63916;BME280;50094;51.356;-0.196;2023-02-18T07:21:03;101314.79;;;23.94;28.68
63916;BME280;50094;51.356;-0.196;2023-02-18T07:23:30;101315.94;;;24.05;28.72
63916;BME280;50094;51.356;-0.196;2023-02-18T07:26:06;101318.15;;;23.79;28.76
63916;BME280;50094;51.356;-0.196;2023-02-18T07:28:35;101317.44;;;24.02;28.78
63916;BME280;50094;51.356;-0.196;2023-02-18T07:31:02;101319.76;;;23.84;28.78
63916;BME280;50094;51.356;-0.196;2023-02-18T07:33:30;101324.85;;;23.81;28.80
63916;BME280;50094;51.356;-0.196;2023-02-18T07:36:00;101320.16;;;24.07;28.78
63916;BME280;50094;51.356;-0.196;2023-02-18T07:38:28;101325.67;;;24.11;28.78
63916;BME280;50094;51.356;-0.196;2023-02-18T07:40:55;101319.73;;;23.90;28.77
63916;BME280;50094;51.356;-0.196;2023-02-18T07:43:22;101325.00;;;24.35;28.77
63916;BME280;50094;51.356;-0.196;2023-02-18T07:45:50;101330.52;;;24.12;28.77
63916;BME280;50094;51.356;-0.196;2023-02-18T07:48:18;101339.54;;;24.44;28.71
63916;BME280;50094;51.356;-0.196;2023-02-18T07:50:46;101334.58;;;24.30;28.74
63916;BME280;50094;51.356;-0.196;2023-02-18T07:53:15;101335.66;;;23.81;28.77
63916;BME280;50094;51.356;-0.196;2023-02-18T07:55:42;101340.27;;;24.06;28.76
63916;BME280;50094;51.356;-0.196;2023-02-18T07:58:10;101331.74;;;24.02;28.78
63916;BME280;50094;51.356;-0.196;2023-02-18T08:00:37;101334.55;;;24.01;28.80
63916;BME280;50094;51.356;-0.196;2023-02-18T08:03:04;101337.08;;;23.88;28.86
63916;BME280;50094;51.356;-0.196;2023-02-18T08:05:31;101345.32;;;23.97;28.86
63916;BME280;50094;51.356;-0.196;2023-02-18T08:07:59;101351.65;;;24.02;28.85
63916;BME280;50094;51.356;-0.196;2023-02-18T08:10:26;101358.78;;;23.79;28.87
63916;BME280;50094;51.356;-0.196;2023-02-18T08:12:53;101352.27;;;23.76;28.89
63916;BME280;50094;51.356;-0.196;2023-02-18T08:15:20;101363.33;;;24.00;28.90
63916;BME280;50094;51.356;-0.196;2023-02-18T08:17:47;101361.52;;;24.08;28.88
63916;BME280;50094;51.356;-0.196;2023-02-18T08:20:15;101361.92;;;23.92;28.85
63916;BME280;50094;51.356;-0.196;2023-02-18T08:22:42;101363.02;;;24.11;28.85
63916;BME280;50094;51.356;-0.196;2023-02-18T08:25:09;101358.72;;;24.12;28.84
63916;BME280;50094;51.356;-0.196;2023-02-18T08:27:36;101348.03;;;24.30;28.85
63916;BME280;50094;51.356;-0.196;2023-02-18T08:30:04;101349.88;;;23.81;28.87
63916;BME280;50094;51.356;-0.196;2023-02-18T08:32:32;101345.10;;;23.86;28.85
63916;BME280;50094;51.356;-0.196;2023-02-18T08:34:59;101337.78;;;23.87;28.86
63916;BME280;50094;51.356;-0.196;2023-02-18T08:37:27;101333.65;;;23.85;28.87
63916;BME280;50094;51.356;-0.196;2023-02-18T08:39:55;101350.12;;;24.07;28.88
63916;BME280;50094;51.356;-0.196;2023-02-18T08:42:22;101347.82;;;24.37;28.85
63916;BME280;50094;51.356;-0.196;2023-02-18T08:44:48;101343.64;;;24.09;28.87
63916;BME280;50094;51.356;-0.196;2023-02-18T08:47:15;101339.50;;;24.08;28.89
63916;BME280;50094;51.356;-0.196;2023-02-18T08:49:42;101344.63;;;23.89;28.88
63916;BME280;50094;51.356;-0.196;2023-02-18T08:52:10;101344.79;;;23.91;28.88
63916;BME280;50094;51.356;-0.196;2023-02-18T08:54:37;101349.98;;;24.10;28.89
63916;BME280;50094;51.356;-0.196;2023-02-18T08:57:03;101354.42;;;23.89;28.89
63916;BME280;50094;51.356;-0.196;2023-02-18T08:59:30;101354.17;;;23.85;28.92
63916;BME280;50094;51.356;-0.196;2023-02-18T09:01:57;101345.72;;;23.86;28.92
63916;BME280;50094;51.356;-0.196;2023-02-18T09:04:24;101344.53;;;24.03;28.95
63916;BME280;50094;51.356;-0.196;2023-02-18T09:06:51;101340.79;;;24.33;28.94
63916;BME280;50094;51.356;-0.196;2023-02-18T09:09:19;101334.85;;;24.11;28.95
63916;BME280;50094;51.356;-0.196;2023-02-18T09:11:46;101345.34;;;24.08;28.96
63916;BME280;50094;51.356;-0.196;2023-02-18T09:14:14;101343.30;;;23.88;28.96
63916;BME280;50094;51.356;-0.196;2023-02-18T09:16:42;101348.80;;;24.12;28.96
63916;BME280;50094;51.356;-0.196;2023-02-18T09:19:09;101357.90;;;23.81;29.00
63916;BME280;50094;51.356;-0.196;2023-02-18T09:21:36;101356.58;;;24.08;29.00
63916;BME280;50094;51.356;-0.196;2023-02-18T09:24:04;101373.61;;;23.85;29.01
63916;BME280;50094;51.356;-0.196;2023-02-18T09:26:31;101368.85;;;23.91;29.00
63916;BME280;50094;51.356;-0.196;2023-02-18T09:28:58;101361.52;;;23.83;29.04
63916;BME280;50094;51.356;-0.196;2023-02-18T09:31:26;101362.47;;;23.84;29.06
63916;BME280;50094;51.356;-0.196;2023-02-18T09:33:55;101360.18;;;23.91;29.05
63916;BME280;50094;51.356;-0.196;2023-02-18T09:36:23;101366.93;;;24.12;29.06
63916;BME280;50094;51.356;-0.196;2023-02-18T09:38:51;101373.32;;;24.17;29.04
63916;BME280;50094;51.356;-0.196;2023-02-18T09:41:26;101377.05;;;23.95;29.04
63916;BME280;50094;51.356;-0.196;2023-02-18T09:43:59;101382.26;;;23.95;29.04
63916;BME280;50094;51.356;-0.196;2023-02-18T09:46:33;101382.80;;;24.05;28.99
63916;BME280;50094;51.356;-0.196;2023-02-18T09:49:05;101375.40;;;24.32;28.95
63916;BME280;50094;51.356;-0.196;2023-02-18T09:51:33;101386.32;;;24.20;28.96
63916;BME280;50094;51.356;-0.196;2023-02-18T09:54:00;101394.79;;;24.22;29.06
63916;BME280;50094;51.356;-0.196;2023-02-18T09:56:32;101395.88;;;24.03;29.09
63916;BME280;50094;51.356;-0.196;2023-02-18T09:59:05;101398.30;;;23.79;29.14
63916;BME280;50094;51.356;-0.196;2023-02-18T10:01:37;101393.03;;;23.90;29.13
63916;BME280;50094;51.356;-0.196;2023-02-18T10:04:12;101392.18;;;23.79;29.18
63916;BME280;50094;51.356;-0.196;2023-02-18T10:06:40;101388.58;;;23.87;29.18
63916;BME280;50094;51.356;-0.196;2023-02-18T10:09:15;101383.16;;;23.77;29.24
63916;BME280;50094;51.356;-0.196;2023-02-18T10:11:48;101385.09;;;24.31;29.24
63916;BME280;50094;51.356;-0.196;2023-02-18T10:14:17;101380.50;;;23.88;29.25
63916;BME280;50094;51.356;-0.196;2023-02-18T10:16:45;101383.68;;;24.36;29.26
63916;BME280;50094;51.356;-0.196;2023-02-18T10:19:21;101384.49;;;24.01;29.22
63916;BME280;50094;51.356;-0.196;2023-02-18T10:21:51;101382.64;;;23.91;29.24
63916;BME280;50094;51.356;-0.196;2023-02-18T10:24:25;101382.87;;;23.98;29.22
63916;BME280;50094;51.356;-0.196;2023-02-18T10:26:53;101376.78;;;24.14;29.25
63916;BME280;50094;51.356;-0.196;2023-02-18T10:29:22;101379.99;;;24.14;29.26
63916;BME280;50094;51.356;-0.196;2023-02-18T10:31:55;101386.81;;;24.37;29.29
63916;BME280;50094;51.356;-0.196;2023-02-18T10:34:33;101390.65;;;23.96;29.30
63916;BME280;50094;51.356;-0.196;2023-02-18T10:37:10;101397.76;;;23.88;29.33
63916;BME280;50094;51.356;-0.196;2023-02-18T10:39:51;101393.60;;;24.12;29.33
63916;BME280;50094;51.356;-0.196;2023-02-18T10:42:31;101391.41;;;24.01;29.32
63916;BME280;50094;51.356;-0.196;2023-02-18T10:45:12;101401.32;;;24.21;29.33
63916;BME280;50094;51.356;-0.196;2023-02-18T10:47:49;101406.05;;;23.93;29.35
63916;BME280;50094;51.356;-0.196;2023-02-18T10:50:26;101408.75;;;24.04;29.33
63916;BME280;50094;51.356;-0.196;2023-02-18T10:52:56;101411.78;;;24.48;29.31
63916;BME280;50094;51.356;-0.196;2023-02-18T10:55:35;101415.33;;;23.98;29.33
63916;BME280;50094;51.356;-0.196;2023-02-18T10:58:03;101423.75;;;24.01;29.34
63916;BME280;50094;51.356;-0.196;2023-02-18T11:00:34;101426.64;;;23.99;29.34
63916;BME280;50094;51.356;-0.196;2023-02-18T11:03:14;101431.68;;;23.97;29.36
63916;BME280;50094;51.356;-0.196;2023-02-18T11:05:43;101442.11;;;24.11;29.33
63916;BME280;50094;51.356;-0.196;2023-02-18T11:08:16;101440.61;;;24.07;29.33
63916;BME280;50094;51.356;-0.196;2023-02-18T11:10:46;101439.29;;;24.10;29.33
63916;BME280;50094;51.356;-0.196;2023-02-18T11:13:16;101439.01;;;24.13;29.31
63916;BME280;50094;51.356;-0.196;2023-02-18T11:15:58;101433.36;;;24.11;29.32
63916;BME280;50094;51.356;-0.196;2023-02-18T11:18:37;101427.81;;;24.15;29.29
63916;BME280;50094;51.356;-0.196;2023-02-18T11:21:18;101422.44;;;24.06;29.31
63916;BME280;50094;51.356;-0.196;2023-02-18T11:23:48;101421.66;;;24.15;29.31
63916;BME280;50094;51.356;-0.196;2023-02-18T11:26:17;101421.54;;;24.12;29.32
63916;BME280;50094;51.356;-0.196;2023-02-18T11:28:49;101413.18;;;24.09;29.34
63916;BME280;50094;51.356;-0.196;2023-02-18T11:31:21;101413.73;;;24.27;29.36
63916;BME280;50094;51.356;-0.196;2023-02-18T11:33:51;101404.53;;;24.38;29.35
63916;BME280;50094;51.356;-0.196;2023-02-18T11:36:22;101409.37;;;24.31;29.38
63916;BME280;50094;51.356;-0.196;2023-02-18T11:38:52;101411.72;;;24.27;29.42
63916;BME280;50094;51.356;-0.196;2023-02-18T11:41:29;101410.91;;;24.04;29.45
63916;BME280;50094;51.356;-0.196;2023-02-18T11:43:59;101419.04;;;24.30;29.47
63916;BME280;50094;51.356;-0.196;2023-02-18T11:46:27;101421.04;;;24.13;29.47
63916;BME280;50094;51.356;-0.196;2023-02-18T11:48:55;101422.38;;;24.37;29.47
63916;BME280;50094;51.356;-0.196;2023-02-18T11:51:24;101431.98;;;24.12;29.48
63916;BME280;50094;51.356;-0.196;2023-02-18T11:53:57;101427.88;;;24.09;29.50
63916;BME280;50094;51.356;-0.196;2023-02-18T11:56:28;101427.40;;;24.06;29.52
63916;BME280;50094;51.356;-0.196;2023-02-18T11:58:56;101431.86;;;24.07;29.53
63916;BME280;50094;51.356;-0.196;2023-02-18T12:01:31;101427.07;;;24.08;29.53
63916;BME280;50094;51.356;-0.196;2023-02-18T12:04:10;101421.75;;;24.13;29.54
63916;BME280;50094;51.356;-0.196;2023-02-18T12:06:43;101417.33;;;24.15;29.52
63916;BME280;50094;51.356;-0.196;2023-02-18T12:09:20;101420.06;;;24.36;29.53
63916;BME280;50094;51.356;-0.196;2023-02-18T12:11:52;101416.81;;;24.18;29.53
63916;BME280;50094;51.356;-0.196;2023-02-18T12:14:22;101419.98;;;24.41;29.53
63916;BME280;50094;51.356;-0.196;2023-02-18T12:17:10;101414.57;;;24.26;29.52
63916;BME280;50094;51.356;-0.196;2023-02-18T12:19:54;101412.57;;;24.20;29.55
63916;BME280;50094;51.356;-0.196;2023-02-18T12:22:31;101408.98;;;24.15;29.57
63916;BME280;50094;51.356;-0.196;2023-02-18T12:25:12;101412.36;;;24.14;29.61
63916;BME280;50094;51.356;-0.196;2023-02-18T12:27:54;101409.08;;;24.42;29.62
63916;BME280;50094;51.356;-0.196;2023-02-18T12:30:41;101408.89;;;24.18;29.64
63916;BME280;50094;51.356;-0.196;2023-02-18T12:33:15;101407.59;;;24.43;29.66
63916;BME280;50094;51.356;-0.196;2023-02-18T12:35:53;101404.27;;;24.13;29.71
63916;BME280;50094;51.356;-0.196;2023-02-18T12:38:41;101403.12;;;24.10;29.75
63916;BME280;50094;51.356;-0.196;2023-02-18T12:41:23;101401.18;;;24.12;29.78
63916;BME280;50094;51.356;-0.196;2023-02-18T12:44:01;101396.66;;;24.15;29.79
63916;BME280;50094;51.356;-0.196;2023-02-18T12:46:42;101395.98;;;24.11;29.82
63916;BME280;50094;51.356;-0.196;2023-02-18T12:49:37;101393.69;;;24.17;29.83
63916;BME280;50094;51.356;-0.196;2023-02-18T12:52:18;101392.50;;;24.19;29.86
63916;BME280;50094;51.356;-0.196;2023-02-18T12:55:11;101389.42;;;24.20;29.88
63916;BME280;50094;51.356;-0.196;2023-02-18T12:57:48;101385.71;;;24.17;29.91